createdAt,value
2018-11-23T00:00:25.741Z,76.80
2018-11-23T00:02:55.261Z,76.72
2018-11-23T00:05:24.117Z,76.23
2018-11-23T00:07:53.641Z,75.79
2018-11-23T00:10:23.606Z,76.72
2018-11-23T00:12:52.671Z,77.08
2018-11-23T00:15:22.622Z,76.71
2018-11-23T00:17:51.569Z,78.98
2018-11-23T00:20:21.657Z,79.10
2018-11-23T00:22:50.577Z,79.70
2018-11-23T00:25:21.416Z,78.96
2018-11-23T00:27:50.606Z,78.71
2018-11-23T00:30:21.245Z,77.96
2018-11-23T00:32:50.656Z,77.59
2018-11-23T00:35:21.305Z,77.42
2018-11-23T00:37:50.653Z,76.76
2018-11-23T00:40:21.773Z,76.52
2018-11-23T00:42:51.119Z,76.74
2018-11-23T00:45:20.010Z,77.20
2018-11-23T00:47:49.418Z,76.71
2018-11-23T00:50:19.540Z,77.44
2018-11-23T00:52:48.755Z,76.71
2018-11-23T00:55:18.933Z,76.80
2018-11-23T00:57:47.802Z,76.48
2018-11-23T01:00:28.280Z,76.70
2018-11-23T01:02:58.017Z,77.04
2018-11-23T01:05:26.880Z,78.29
2018-11-23T01:07:55.811Z,78.00
2018-11-23T01:10:25.597Z,77.47
2018-11-23T01:12:55.321Z,77.50
2018-11-23T01:15:24.197Z,77.95
2018-11-23T01:17:53.310Z,77.91
2018-11-23T01:20:24.197Z,77.98
2018-11-23T01:22:53.598Z,79.32
2018-11-23T01:25:23.555Z,79.77
2018-11-23T01:27:53.669Z,80.35
2018-11-23T01:30:23.943Z,79.08
2018-11-23T01:32:52.882Z,78.44
2018-11-23T01:35:21.806Z,78.05
2018-11-23T01:37:50.879Z,77.42
2018-11-23T01:40:21.417Z,77.46
2018-11-23T01:42:50.345Z,77.95
2018-11-23T01:45:19.261Z,77.27
2018-11-23T01:47:48.161Z,77.18
2018-11-23T01:50:19.013Z,76.40
2018-11-23T01:52:48.846Z,76.50
2018-11-23T01:55:18.537Z,76.16
2018-11-23T01:57:47.653Z,76.39
2018-11-23T02:00:18.375Z,76.18
2018-11-23T02:02:47.836Z,76.66
2018-11-23T02:05:16.884Z,77.12
2018-11-23T02:07:45.759Z,76.71
2018-11-23T02:10:15.937Z,76.46
2018-11-23T02:12:44.853Z,76.08
2018-11-23T02:15:16.294Z,76.13
2018-11-23T02:17:45.182Z,76.27
2018-11-23T02:20:15.249Z,76.20
2018-11-23T02:22:44.133Z,75.82
2018-11-23T02:25:13.151Z,76.08
2018-11-23T02:27:42.057Z,76.07
2018-11-23T02:30:17.467Z,75.65
2018-11-23T02:32:46.426Z,75.77
2018-11-23T02:35:15.775Z,75.74
2018-11-23T02:37:44.702Z,75.60
2018-11-23T02:40:14.770Z,75.08
2018-11-23T02:42:43.776Z,75.52
2018-11-23T02:45:16.961Z,75.51
2018-11-23T02:47:46.502Z,75.80
2018-11-23T02:50:15.378Z,75.91
2018-11-23T02:52:44.677Z,76.34
2018-11-23T02:55:14.685Z,75.92
2018-11-23T02:57:43.540Z,75.77
2018-11-23T03:00:14.772Z,75.69
2018-11-23T03:02:43.762Z,75.98
2018-11-23T03:05:14.768Z,75.79
2018-11-23T03:07:43.976Z,76.17
2018-11-23T03:10:13.975Z,75.88
2018-11-23T03:12:43.474Z,75.72
2018-11-23T03:15:14.411Z,75.74
2018-11-23T03:17:44.027Z,75.88
2018-11-23T03:20:17.893Z,76.12
2018-11-23T03:22:47.006Z,76.00
2018-11-23T03:25:16.377Z,75.70
2018-11-23T03:27:45.253Z,76.19
2018-11-23T03:30:20.842Z,76.14
2018-11-23T03:32:50.470Z,76.48
2018-11-23T03:35:19.997Z,75.82
2018-11-23T03:37:48.990Z,76.03
2018-11-23T03:40:17.967Z,76.21
2018-11-23T03:42:46.831Z,75.65
2018-11-23T03:45:16.250Z,75.99
2018-11-23T03:47:45.559Z,75.81
2018-11-23T03:50:15.273Z,75.95
2018-11-23T03:52:44.563Z,76.22
2018-11-23T03:55:13.553Z,76.71
2018-11-23T03:57:42.408Z,76.83
2018-11-23T04:00:17.870Z,76.42
2018-11-23T04:02:46.829Z,76.15
2018-11-23T04:05:16.024Z,76.29
2018-11-23T04:07:44.898Z,76.75
2018-11-23T04:10:14.805Z,76.58
2018-11-23T04:12:44.097Z,76.82
2018-11-23T04:15:13.652Z,77.82
2018-11-23T04:17:42.777Z,77.77
2018-11-23T04:20:13.988Z,77.27
2018-11-23T04:22:43.347Z,76.98
2018-11-23T04:25:12.988Z,77.36
2018-11-23T04:27:42.514Z,76.70
2018-11-23T04:30:13.859Z,77.06
2018-11-23T04:32:43.303Z,76.69
2018-11-23T04:35:13.748Z,77.16
2018-11-23T04:37:43.517Z,76.34
2018-11-23T04:40:13.335Z,75.78
2018-11-23T04:42:42.743Z,76.21
2018-11-23T04:45:12.194Z,75.92
2018-11-23T04:47:41.309Z,76.21
2018-11-23T04:50:12.194Z,75.99
2018-11-23T04:52:41.138Z,76.31
2018-11-23T04:55:10.714Z,75.93
2018-11-23T04:57:39.866Z,76.43
2018-11-23T05:00:11.399Z,76.38
2018-11-23T05:02:40.310Z,76.58
2018-11-23T05:05:10.457Z,76.80
2018-11-23T05:07:39.449Z,77.13
2018-11-23T05:10:10.252Z,76.99
2018-11-23T05:12:39.253Z,76.93
2018-11-23T05:15:09.249Z,77.66
2018-11-23T05:17:38.222Z,77.54
2018-11-23T05:20:08.027Z,77.22
2018-11-23T05:22:37.325Z,77.45
2018-11-23T05:25:06.698Z,77.44
2018-11-23T05:27:35.649Z,77.54
2018-11-23T05:30:05.001Z,77.55
2018-11-23T05:32:33.925Z,77.35
2018-11-23T05:35:02.791Z,77.57
2018-11-23T05:37:31.702Z,77.40
2018-11-23T05:40:00.755Z,77.57
2018-11-23T05:42:29.641Z,77.53
2018-11-23T05:44:58.582Z,77.21
2018-11-23T05:47:27.424Z,77.56
2018-11-23T05:49:56.300Z,77.18
2018-11-23T05:52:25.238Z,77.74
2018-11-23T05:54:54.259Z,77.70
2018-11-23T05:57:24.495Z,77.67
2018-11-23T05:59:53.404Z,77.90
2018-11-23T06:02:22.270Z,77.41
2018-11-23T06:04:51.138Z,77.29
2018-11-23T06:07:20.034Z,77.19
2018-11-23T06:09:48.953Z,77.25
2018-11-23T06:12:17.874Z,76.75
2018-11-23T06:14:46.770Z,77.00
2018-11-23T06:17:15.718Z,76.73
2018-11-23T06:19:44.647Z,76.78
2018-11-23T06:22:13.565Z,76.48
2018-11-23T06:24:42.433Z,76.29
2018-11-23T06:27:11.661Z,76.76
2018-11-23T06:29:40.631Z,76.84
2018-11-23T06:32:20.399Z,76.88
2018-11-23T06:34:49.402Z,77.83
2018-11-23T06:37:18.448Z,78.03
2018-11-23T06:39:47.307Z,77.20
2018-11-23T06:42:16.236Z,77.48
2018-11-23T06:44:45.110Z,77.89
2018-11-23T06:47:14.051Z,77.92
2018-11-23T06:49:44.562Z,77.40
2018-11-23T06:52:13.550Z,77.71
2018-11-23T06:54:42.426Z,77.24
2018-11-23T06:57:11.494Z,76.91
2018-11-23T06:59:40.502Z,78.10
2018-11-23T07:02:09.681Z,78.14
2018-11-23T07:04:38.545Z,78.15
2018-11-23T07:07:07.442Z,78.13
2018-11-23T07:09:36.329Z,77.45
2018-11-23T07:12:05.341Z,76.99
2018-11-23T07:14:34.195Z,76.82
2018-11-23T07:17:03.118Z,77.06
2018-11-23T07:19:31.958Z,76.38
2018-11-23T07:22:01.102Z,76.20
2018-11-23T07:24:30.042Z,76.36
2018-11-23T07:26:58.934Z,76.17
2018-11-23T07:29:27.881Z,76.40
2018-11-23T07:31:56.844Z,75.80
2018-11-23T07:34:26.073Z,76.28
2018-11-23T07:36:55.067Z,76.27
2018-11-23T07:39:35.070Z,76.14
2018-11-23T07:42:25.073Z,76.11
2018-11-23T07:44:54.056Z,76.00
2018-11-23T07:47:22.964Z,75.70
2018-11-23T07:49:51.853Z,75.95
2018-11-23T07:52:20.948Z,75.95
2018-11-23T07:54:49.824Z,76.06
2018-11-23T07:57:18.695Z,76.80
2018-11-23T07:59:47.531Z,75.78
2018-11-23T08:02:16.575Z,76.14
2018-11-23T08:04:45.485Z,75.95
2018-11-23T08:07:14.533Z,76.00
2018-11-23T08:09:43.361Z,75.74
2018-11-23T08:12:12.196Z,75.78
2018-11-23T08:14:41.046Z,75.94
2018-11-23T08:17:09.890Z,76.60
2018-11-23T08:19:38.781Z,76.94
2018-11-23T08:22:07.647Z,77.04
2018-11-23T08:24:36.556Z,76.82
2018-11-23T08:27:05.449Z,76.50
2018-11-23T08:29:34.269Z,76.19
2018-11-23T08:32:03.142Z,75.86
2018-11-23T08:34:31.985Z,75.75
2018-11-23T08:37:00.810Z,75.25
2018-11-23T08:39:29.638Z,74.98
2018-11-23T08:41:58.557Z,74.90
2018-11-23T08:44:27.390Z,75.30
2018-11-23T08:46:56.238Z,75.04
2018-11-23T08:49:25.122Z,74.69
2018-11-23T08:51:53.971Z,74.50
2018-11-23T08:54:22.829Z,74.67
2018-11-23T08:56:51.630Z,73.50
2018-11-23T08:59:20.484Z,73.24
2018-11-23T09:01:49.349Z,72.68
2018-11-23T09:04:18.225Z,72.89
2018-11-23T09:06:47.121Z,72.66
2018-11-23T09:09:16.042Z,72.85
2018-11-23T09:11:44.869Z,72.37
2018-11-23T09:14:13.757Z,72.15
2018-11-23T09:16:42.709Z,71.96
2018-11-23T09:19:11.545Z,71.12
2018-11-23T09:21:40.384Z,71.67
2018-11-23T09:24:09.229Z,72.34
2018-11-23T09:26:38.169Z,71.66
2018-11-23T09:29:07.010Z,71.59
2018-11-23T09:31:35.967Z,71.41
2018-11-23T09:34:04.846Z,71.76
2018-11-23T09:36:33.646Z,71.50
2018-11-23T09:39:02.521Z,71.75
2018-11-23T09:41:31.361Z,71.46
2018-11-23T09:44:00.252Z,71.29
2018-11-23T09:46:29.082Z,71.04
2018-11-23T09:48:57.907Z,70.97
2018-11-23T09:51:26.722Z,71.29
2018-11-23T09:53:55.840Z,71.14
2018-11-23T09:56:24.681Z,71.98
2018-11-23T09:58:53.502Z,72.59
2018-11-23T10:01:22.362Z,71.84
2018-11-23T10:03:51.180Z,71.58
2018-11-23T10:06:20.060Z,71.37
2018-11-23T10:08:48.931Z,71.17
2018-11-23T10:11:17.782Z,70.12
2018-11-23T10:13:46.629Z,70.82
2018-11-23T10:16:15.485Z,70.50
2018-11-23T10:18:44.321Z,70.56
2018-11-23T10:21:13.229Z,70.72
2018-11-23T10:23:42.211Z,71.23
2018-11-23T10:26:11.060Z,70.75
2018-11-23T10:28:39.903Z,70.75
2018-11-23T10:31:08.747Z,70.58
2018-11-23T10:33:37.619Z,70.20
2018-11-23T10:36:06.493Z,69.93
2018-11-23T10:38:35.352Z,69.69
2018-11-23T10:41:04.224Z,70.36
2018-11-23T10:43:33.070Z,70.50
2018-11-23T10:46:01.945Z,70.02
2018-11-23T10:48:30.797Z,70.11
2018-11-23T10:50:59.620Z,70.30
2018-11-23T10:53:28.530Z,69.47
2018-11-23T10:55:57.349Z,69.51
2018-11-23T10:58:26.261Z,69.21
2018-11-23T11:01:00.194Z,69.13
2018-11-23T11:03:39.181Z,68.71
2018-11-23T11:06:13.683Z,69.13
2018-11-23T11:08:42.902Z,68.99
2018-11-23T11:11:13.785Z,69.41
2018-11-23T11:13:40.683Z,69.18
2018-11-23T11:16:09.494Z,69.05
2018-11-23T11:18:38.344Z,69.15
2018-11-23T11:21:07.232Z,68.87
2018-11-23T11:23:36.061Z,69.15
2018-11-23T11:26:05.004Z,69.26
2018-11-23T11:28:33.860Z,68.76
2018-11-23T11:31:02.698Z,68.83
2018-11-23T11:33:31.564Z,68.72
2018-11-23T11:36:00.399Z,68.76
2018-11-23T11:38:29.289Z,69.13
2018-11-23T11:40:58.133Z,68.82
2018-11-23T11:43:26.952Z,69.22
2018-11-23T11:45:55.785Z,69.08
2018-11-23T11:48:24.722Z,68.60
2018-11-23T11:50:53.546Z,68.57
2018-11-23T11:53:22.405Z,68.26
2018-11-23T11:55:51.278Z,68.50
2018-11-23T11:58:20.140Z,68.28
2018-11-23T12:00:48.994Z,67.99
2018-11-23T12:03:17.810Z,67.92
2018-11-23T12:05:46.737Z,67.92
2018-11-23T12:08:15.606Z,67.73
2018-11-23T12:10:44.518Z,68.45
2018-11-23T12:13:13.378Z,68.10
2018-11-23T12:15:42.233Z,67.37
2018-11-23T12:18:11.142Z,68.46
2018-11-23T12:20:39.974Z,67.94
2018-11-23T12:23:08.879Z,67.73
2018-11-23T12:25:37.753Z,67.44
2018-11-23T12:28:06.728Z,67.29
2018-11-23T12:30:35.574Z,66.86
2018-11-23T12:33:04.531Z,66.74
2018-11-23T12:35:33.362Z,66.96
2018-11-23T12:38:02.328Z,66.86
2018-11-23T12:40:31.204Z,67.04
2018-11-23T12:43:00.149Z,67.06
2018-11-23T12:45:29.031Z,66.92
2018-11-23T12:47:57.907Z,67.03
2018-11-23T12:50:26.838Z,66.73
2018-11-23T12:52:55.735Z,67.10
2018-11-23T12:55:24.645Z,66.71
2018-11-23T12:57:53.703Z,66.93
2018-11-23T13:00:29.575Z,67.04
2018-11-23T13:03:01.647Z,67.45
2018-11-23T13:05:31.578Z,67.45
2018-11-23T13:08:01.928Z,67.15
2018-11-23T13:10:31.092Z,67.24
2018-11-23T13:13:00.631Z,67.00
2018-11-23T13:15:29.506Z,67.09
2018-11-23T13:17:59.191Z,67.05
2018-11-23T13:20:28.144Z,67.26
2018-11-23T13:22:57.036Z,67.25
2018-11-23T13:25:27.649Z,67.27
2018-11-23T13:27:57.556Z,67.19
2018-11-23T13:30:29.709Z,66.84
2018-11-23T13:32:58.578Z,67.48
2018-11-23T13:35:27.512Z,67.27
2018-11-23T13:37:56.421Z,66.91
2018-11-23T13:40:26.264Z,67.26
2018-11-23T13:42:56.095Z,67.04
2018-11-23T13:45:26.513Z,66.86
2018-11-23T13:47:55.380Z,66.71
2018-11-23T13:50:24.901Z,66.93
2018-11-23T13:52:55.714Z,67.04
2018-11-23T13:55:24.646Z,67.19
2018-11-23T13:57:53.820Z,67.02
2018-11-23T14:00:24.159Z,67.16
2018-11-23T14:02:53.034Z,67.49
2018-11-23T14:05:23.394Z,67.28
2018-11-23T14:07:54.417Z,67.22
2018-11-23T14:10:24.546Z,67.09
2018-11-23T14:12:53.448Z,67.36
2018-11-23T14:15:23.682Z,66.92
2018-11-23T14:17:53.522Z,66.55
2018-11-23T14:20:23.398Z,67.07
2018-11-23T14:22:52.302Z,66.74
2018-11-23T14:25:22.577Z,66.95
2018-11-23T14:27:51.865Z,66.68
2018-11-23T14:30:23.332Z,66.30
2018-11-23T14:32:52.329Z,66.54
2018-11-23T14:35:23.481Z,66.17
2018-11-23T14:37:53.299Z,66.80
2018-11-23T14:40:22.182Z,67.45
2018-11-23T14:42:51.488Z,67.22
2018-11-23T14:45:23.742Z,66.96
2018-11-23T14:47:53.486Z,66.93
2018-11-23T14:50:27.906Z,67.10
2018-11-23T14:52:57.409Z,66.87
2018-11-23T14:55:26.586Z,66.64
2018-11-23T14:57:55.864Z,66.86
2018-11-23T15:00:31.344Z,66.98
2018-11-23T15:03:01.421Z,66.86
2018-11-23T15:05:30.278Z,66.54
2018-11-23T15:07:59.134Z,66.68
2018-11-23T15:10:29.369Z,67.02
2018-11-23T15:12:59.589Z,66.94
2018-11-23T15:15:29.916Z,67.62
2018-11-23T15:17:59.501Z,67.37
2018-11-23T15:20:32.740Z,67.23
2018-11-23T15:23:04.082Z,67.74
2018-11-23T15:25:33.007Z,67.58
2018-11-23T15:28:01.854Z,67.63
2018-11-23T15:30:32.180Z,67.48
2018-11-23T15:33:01.382Z,67.33
2018-11-23T15:35:31.342Z,67.05
2018-11-23T15:38:00.243Z,66.92
2018-11-23T15:40:29.985Z,66.71
2018-11-23T15:43:03.254Z,66.65
2018-11-23T15:45:32.989Z,66.70
2018-11-23T15:48:02.326Z,66.88
2018-11-23T15:50:32.641Z,66.88
2018-11-23T15:53:01.625Z,66.78
2018-11-23T15:55:32.906Z,66.86
2018-11-23T15:58:04.191Z,67.24
2018-11-23T16:00:35.357Z,67.19
2018-11-23T16:03:04.476Z,67.11
2018-11-23T16:05:33.703Z,67.45
2018-11-23T16:08:04.324Z,66.83
2018-11-23T16:10:36.295Z,66.18
2018-11-23T16:13:11.055Z,67.04
2018-11-23T16:15:35.793Z,77.82
2018-11-23T16:18:05.379Z,67.25
2018-11-23T16:20:36.669Z,70.14
2018-11-23T16:23:08.016Z,67.13
2018-11-23T16:25:37.045Z,64.09
2018-11-23T16:28:07.546Z,63.60
2018-11-23T16:30:37.934Z,63.98
2018-11-23T16:33:08.904Z,64.69
2018-11-23T16:35:39.014Z,64.69
2018-11-23T16:38:10.730Z,64.74
2018-11-23T16:40:41.243Z,65.12
2018-11-23T16:43:11.211Z,65.83
2018-11-23T16:45:40.757Z,66.04
2018-11-23T16:48:10.797Z,65.73
2018-11-23T16:50:39.709Z,66.06
2018-11-23T16:53:09.673Z,66.29
2018-11-23T16:55:38.588Z,66.86
2018-11-23T16:58:08.930Z,66.87
2018-11-23T17:00:39.266Z,67.24
2018-11-23T17:03:12.260Z,67.25
2018-11-23T17:05:45.842Z,67.28
2018-11-23T17:08:14.769Z,67.20
2018-11-23T17:10:43.627Z,67.37
2018-11-23T17:13:13.775Z,67.29
2018-11-23T17:15:42.723Z,67.31
2018-11-23T17:18:11.640Z,67.12
2018-11-23T17:20:41.010Z,67.63
2018-11-23T17:23:10.897Z,68.06
2018-11-23T17:25:40.036Z,67.73
2018-11-23T17:28:10.211Z,68.02
2018-11-23T17:30:39.422Z,68.21
2018-11-23T17:33:08.394Z,68.53
2018-11-23T17:35:37.393Z,68.35
2018-11-23T17:38:06.721Z,67.65
2018-11-23T17:40:37.638Z,67.64
2018-11-23T17:43:06.990Z,68.10
2018-11-23T17:45:36.018Z,68.75
2018-11-23T17:48:05.678Z,68.88
2018-11-23T17:50:35.922Z,69.33
2018-11-23T17:53:05.687Z,68.88
2018-11-23T17:55:34.630Z,68.16
2018-11-23T17:58:03.961Z,68.58
2018-11-23T18:00:38.869Z,68.91
2018-11-23T18:03:03.566Z,69.25
2018-11-23T18:05:33.398Z,69.32
2018-11-23T18:08:02.777Z,69.77
2018-11-23T18:10:32.930Z,69.57
2018-11-23T18:13:02.339Z,69.82
2018-11-23T18:15:32.663Z,70.17
2018-11-23T18:18:02.777Z,70.21
2018-11-23T18:20:32.474Z,69.92
2018-11-23T18:23:02.163Z,70.39
2018-11-23T18:25:36.784Z,70.19
2018-11-23T18:28:05.845Z,70.09
2018-11-23T18:30:35.235Z,70.37
2018-11-23T18:33:06.790Z,70.45
2018-11-23T18:35:35.937Z,70.66
2018-11-23T18:38:04.921Z,70.66
2018-11-23T18:40:37.561Z,70.53
2018-11-23T18:43:03.043Z,70.80
2018-11-23T18:45:32.097Z,70.76
2018-11-23T18:48:01.233Z,70.55
2018-11-23T18:50:30.174Z,70.33
2018-11-23T18:52:59.041Z,70.20
2018-11-23T18:55:28.063Z,70.56
2018-11-23T18:57:57.042Z,70.31
2018-11-23T19:00:25.978Z,70.23
2018-11-23T19:02:55.496Z,70.14
2018-11-23T19:05:26.830Z,70.39
2018-11-23T19:07:55.905Z,70.25
2018-11-23T19:10:24.857Z,69.68
2018-11-23T19:12:53.861Z,69.88
2018-11-23T19:15:25.508Z,70.07
2018-11-23T19:17:52.206Z,69.85
2018-11-23T19:20:22.066Z,69.98
2018-11-23T19:22:52.834Z,70.37
2018-11-23T19:25:21.921Z,70.55
2018-11-23T19:27:50.813Z,70.35
2018-11-23T19:30:23.511Z,70.59
2018-11-23T19:32:50.047Z,70.40
2018-11-23T19:35:19.042Z,70.28
2018-11-23T19:37:48.419Z,70.42
2018-11-23T19:40:17.409Z,70.44
2018-11-23T19:42:46.726Z,70.27
2018-11-23T19:45:17.365Z,70.31
2018-11-23T19:47:46.494Z,70.52
2018-11-23T19:50:16.354Z,69.97
2018-11-23T19:52:46.486Z,69.86
2018-11-23T19:55:16.335Z,70.17
2018-11-23T19:57:45.294Z,70.09
2018-11-23T20:00:23.069Z,69.99
2018-11-23T20:02:52.086Z,70.11
2018-11-23T20:05:21.027Z,69.82
2018-11-23T20:07:51.421Z,70.08
2018-11-23T20:10:21.369Z,69.99
2018-11-23T20:12:51.663Z,70.09
2018-11-23T20:15:20.802Z,70.31
2018-11-23T20:17:49.833Z,70.82
2018-11-23T20:20:19.021Z,70.07
2018-11-23T20:22:49.214Z,69.63
2018-11-23T20:25:19.885Z,70.05
2018-11-23T20:27:50.085Z,70.29
2018-11-23T20:30:19.549Z,69.72
2018-11-23T20:32:48.494Z,69.92
2018-11-23T20:35:19.182Z,69.85
2018-11-23T20:37:48.091Z,69.68
2018-11-23T20:40:24.027Z,69.95
2018-11-23T20:42:53.164Z,70.08
2018-11-23T20:45:22.079Z,70.44
2018-11-23T20:47:51.074Z,70.70
2018-11-23T20:50:20.001Z,70.91
2018-11-23T20:52:49.069Z,71.13
2018-11-23T20:55:22.759Z,71.43
2018-11-23T20:57:51.717Z,71.24
2018-11-23T21:00:21.591Z,70.99
2018-11-23T21:02:54.387Z,70.96
2018-11-23T21:05:23.494Z,71.06
2018-11-23T21:07:52.524Z,71.40
2018-11-23T21:10:24.621Z,71.64
2018-11-23T21:12:53.938Z,71.63
2018-11-23T21:15:25.189Z,71.07
2018-11-23T21:17:54.142Z,70.92
2018-11-23T21:20:23.195Z,71.23
2018-11-23T21:22:52.122Z,71.58
2018-11-23T21:25:21.191Z,71.93
2018-11-23T21:27:50.157Z,71.31
2018-11-23T21:30:20.344Z,71.86
2018-11-23T21:32:49.266Z,71.53
2018-11-23T21:35:18.263Z,71.69
2018-11-23T21:37:47.121Z,72.20
2018-11-23T21:40:16.870Z,72.40
2018-11-23T21:42:45.872Z,72.13
2018-11-23T21:45:16.823Z,71.97
2018-11-23T21:47:45.703Z,71.87
2018-11-23T21:50:25.172Z,71.71
2018-11-23T21:52:47.718Z,71.61
2018-11-23T21:55:19.906Z,71.34
2018-11-23T21:57:48.813Z,71.34
2018-11-23T22:00:17.813Z,70.47
2018-11-23T22:02:46.797Z,70.21
2018-11-23T22:05:15.782Z,71.43
2018-11-23T22:07:44.751Z,70.89
2018-11-23T22:10:17.440Z,71.41
2018-11-23T22:12:46.489Z,71.32
2018-11-23T22:15:17.519Z,71.28
2018-11-23T22:17:46.763Z,71.65
2018-11-23T22:20:16.754Z,71.43
2018-11-23T22:22:45.716Z,71.47
2018-11-23T22:25:15.839Z,71.81
2018-11-23T22:27:44.932Z,72.04
2018-11-23T22:30:21.545Z,71.81
2018-11-23T22:32:50.473Z,71.84
2018-11-23T22:35:19.404Z,71.78
2018-11-23T22:37:48.357Z,71.89
2018-11-23T22:40:18.453Z,71.97
2018-11-23T22:42:48.481Z,72.18
2018-11-23T22:45:17.890Z,71.74
2018-11-23T22:47:47.357Z,71.91
2018-11-23T22:50:19.431Z,71.42
2018-11-23T22:52:48.322Z,71.74
2018-11-23T22:55:18.134Z,71.76
2018-11-23T22:57:46.997Z,71.48
2018-11-23T23:00:25.846Z,71.53
2018-11-23T23:02:54.938Z,71.06
2018-11-23T23:05:24.669Z,71.01
2018-11-23T23:07:53.593Z,70.74
2018-11-23T23:10:22.539Z,71.11
2018-11-23T23:12:51.601Z,70.78
2018-11-23T23:15:20.459Z,70.80
2018-11-23T23:17:49.417Z,70.40
2018-11-23T23:20:19.389Z,70.23
2018-11-23T23:22:48.311Z,69.74
2018-11-23T23:25:17.226Z,70.28
2018-11-23T23:27:46.306Z,69.96
2018-11-23T23:30:16.197Z,69.57
2018-11-23T23:32:45.445Z,69.90
2018-11-23T23:35:15.469Z,69.81
2018-11-23T23:37:44.451Z,69.72
2018-11-23T23:40:15.417Z,69.88
2018-11-23T23:42:44.430Z,69.47
2018-11-23T23:45:15.358Z,69.37
2018-11-23T23:47:44.348Z,69.33
2018-11-23T23:50:14.517Z,69.38
2018-11-23T23:52:43.594Z,69.88
2018-11-23T23:55:12.697Z,69.40
2018-11-23T23:57:43.278Z,69.17
